sensor_id;sensor_type;location;lat;lon;timestamp;temperature;humidity
56428;DHT22;42331;53.578;9.760;2022-09-01T00:00:49;13.00;99.90
56428;DHT22;42331;53.578;9.760;2022-09-01T00:03:20;13.00;99.90
56428;DHT22;42331;53.578;9.760;2022-09-01T00:08:27;12.90;99.90
56428;DHT22;42331;53.578;9.760;2022-09-01T00:10:57;12.80;99.90
56428;DHT22;42331;53.578;9.760;2022-09-01T00:13:28;12.80;99.90
56428;DHT22;42331;53.578;9.760;2022-09-01T00:16:02;12.70;99.90
56428;DHT22;42331;53.578;9.760;2022-09-01T00:18:33;12.70;99.90
56428;DHT22;42331;53.578;9.760;2022-09-01T00:21:05;12.60;99.90
56428;DHT22;42331;53.578;9.760;2022-09-01T00:23:36;12.60;99.90
56428;DHT22;42331;53.578;9.760;2022-09-01T00:26:07;12.60;99.90
56428;DHT22;42331;53.578;9.760;2022-09-01T00:28:39;12.60;99.90
56428;DHT22;42331;53.578;9.760;2022-09-01T00:31:10;12.60;99.90
56428;DHT22;42331;53.578;9.760;2022-09-01T00:33:42;12.60;99.90
56428;DHT22;42331;53.578;9.760;2022-09-01T00:36:13;12.50;99.90
56428;DHT22;42331;53.578;9.760;2022-09-01T00:38:44;12.50;99.90
56428;DHT22;42331;53.578;9.760;2022-09-01T00:41:17;12.50;99.90
56428;DHT22;42331;53.578;9.760;2022-09-01T00:43:51;12.50;99.90
56428;DHT22;42331;53.578;9.760;2022-09-01T00:46:26;12.50;99.90
56428;DHT22;42331;53.578;9.760;2022-09-01T00:49:08;12.50;99.90
56428;DHT22;42331;53.578;9.760;2022-09-01T00:51:43;12.50;99.90
56428;DHT22;42331;53.578;9.760;2022-09-01T00:54:19;12.40;99.90
56428;DHT22;42331;53.578;9.760;2022-09-01T00:56:51;12.30;99.90
56428;DHT22;42331;53.578;9.760;2022-09-01T00:59:24;12.20;99.90
56428;DHT22;42331;53.578;9.760;2022-09-01T01:01:56;12.20;99.90
56428;DHT22;42331;53.578;9.760;2022-09-01T01:04:27;12.20;99.90
56428;DHT22;42331;53.578;9.760;2022-09-01T01:06:59;12.20;99.90
56428;DHT22;42331;53.578;9.760;2022-09-01T01:09:36;12.20;99.90
56428;DHT22;42331;53.578;9.760;2022-09-01T01:12:09;12.20;99.90
56428;DHT22;42331;53.578;9.760;2022-09-01T01:14:49;12.10;99.90
56428;DHT22;42331;53.578;9.760;2022-09-01T01:17:20;12.20;99.90
56428;DHT22;42331;53.578;9.760;2022-09-01T01:19:52;12.20;99.90
56428;DHT22;42331;53.578;9.760;2022-09-01T01:25:35;12.20;99.90
56428;DHT22;42331;53.578;9.760;2022-09-01T01:28:15;12.20;99.90
56428;DHT22;42331;53.578;9.760;2022-09-01T01:31:01;12.10;99.90
56428;DHT22;42331;53.578;9.760;2022-09-01T01:33:36;12.10;99.90
56428;DHT22;42331;53.578;9.760;2022-09-01T01:36:14;12.10;99.90
56428;DHT22;42331;53.578;9.760;2022-09-01T01:38:48;12.10;99.90
56428;DHT22;42331;53.578;9.760;2022-09-01T01:41:19;12.20;99.90
56428;DHT22;42331;53.578;9.760;2022-09-01T01:43:51;12.20;99.90
56428;DHT22;42331;53.578;9.760;2022-09-01T01:46:22;12.10;99.90
56428;DHT22;42331;53.578;9.760;2022-09-01T01:48:53;12.10;99.90
56428;DHT22;42331;53.578;9.760;2022-09-01T01:51:24;12.10;99.90
56428;DHT22;42331;53.578;9.760;2022-09-01T01:53:58;12.10;99.90
56428;DHT22;42331;53.578;9.760;2022-09-01T01:56:32;12.10;99.90
56428;DHT22;42331;53.578;9.760;2022-09-01T01:59:03;12.10;99.90
56428;DHT22;42331;53.578;9.760;2022-09-01T02:01:34;12.10;99.90
56428;DHT22;42331;53.578;9.760;2022-09-01T02:04:05;12.00;99.90
56428;DHT22;42331;53.578;9.760;2022-09-01T02:06:37;12.00;99.90
56428;DHT22;42331;53.578;9.760;2022-09-01T02:09:12;12.00;99.90
56428;DHT22;42331;53.578;9.760;2022-09-01T02:11:44;12.00;99.90
56428;DHT22;42331;53.578;9.760;2022-09-01T02:14:15;11.90;99.90
56428;DHT22;42331;53.578;9.760;2022-09-01T02:16:50;11.90;99.90
56428;DHT22;42331;53.578;9.760;2022-09-01T02:19:21;11.90;99.90
56428;DHT22;42331;53.578;9.760;2022-09-01T02:21:52;11.90;99.90
56428;DHT22;42331;53.578;9.760;2022-09-01T02:24:25;11.80;99.90
56428;DHT22;42331;53.578;9.760;2022-09-01T02:27:00;11.80;99.90
56428;DHT22;42331;53.578;9.760;2022-09-01T02:29:32;11.80;99.90
56428;DHT22;42331;53.578;9.760;2022-09-01T02:32:03;11.70;99.90
56428;DHT22;42331;53.578;9.760;2022-09-01T02:34:33;11.70;99.90
56428;DHT22;42331;53.578;9.760;2022-09-01T02:37:04;11.60;99.90
56428;DHT22;42331;53.578;9.760;2022-09-01T02:39:35;11.60;99.90
56428;DHT22;42331;53.578;9.760;2022-09-01T02:42:06;11.50;99.90
56428;DHT22;42331;53.578;9.760;2022-09-01T02:44:37;11.50;99.90
56428;DHT22;42331;53.578;9.760;2022-09-01T02:47:08;11.50;99.90
56428;DHT22;42331;53.578;9.760;2022-09-01T02:49:39;11.40;99.90
56428;DHT22;42331;53.578;9.760;2022-09-01T02:52:11;11.40;99.90
56428;DHT22;42331;53.578;9.760;2022-09-01T02:54:46;11.40;99.90
56428;DHT22;42331;53.578;9.760;2022-09-01T02:57:18;11.40;99.90
56428;DHT22;42331;53.578;9.760;2022-09-01T02:59:49;11.40;99.90
56428;DHT22;42331;53.578;9.760;2022-09-01T03:02:20;11.40;99.90
56428;DHT22;42331;53.578;9.760;2022-09-01T03:04:52;11.40;99.90
56428;DHT22;42331;53.578;9.760;2022-09-01T03:07:25;11.40;99.90
56428;DHT22;42331;53.578;9.760;2022-09-01T03:09:57;11.40;99.90
56428;DHT22;42331;53.578;9.760;2022-09-01T03:12:30;11.40;99.90
56428;DHT22;42331;53.578;9.760;2022-09-01T03:15:01;11.40;99.90
56428;DHT22;42331;53.578;9.760;2022-09-01T03:17:32;11.40;99.90
56428;DHT22;42331;53.578;9.760;2022-09-01T03:20:03;11.40;99.90
56428;DHT22;42331;53.578;9.760;2022-09-01T03:22:33;11.40;99.90
56428;DHT22;42331;53.578;9.760;2022-09-01T03:25:04;11.40;99.90
56428;DHT22;42331;53.578;9.760;2022-09-01T03:27:35;11.40;99.90
56428;DHT22;42331;53.578;9.760;2022-09-01T03:30:06;11.50;99.90
56428;DHT22;42331;53.578;9.760;2022-09-01T03:32:37;11.50;99.90
56428;DHT22;42331;53.578;9.760;2022-09-01T03:35:08;11.40;99.90
56428;DHT22;42331;53.578;9.760;2022-09-01T03:37:39;11.50;99.90
56428;DHT22;42331;53.578;9.760;2022-09-01T03:40:14;11.40;99.90
56428;DHT22;42331;53.578;9.760;2022-09-01T03:42:45;11.50;99.90
56428;DHT22;42331;53.578;9.760;2022-09-01T03:45:16;11.50;99.90
56428;DHT22;42331;53.578;9.760;2022-09-01T03:47:50;11.50;99.90
56428;DHT22;42331;53.578;9.760;2022-09-01T03:50:23;11.50;99.90
56428;DHT22;42331;53.578;9.760;2022-09-01T03:52:57;11.50;99.90
56428;DHT22;42331;53.578;9.760;2022-09-01T03:55:32;11.50;99.90
56428;DHT22;42331;53.578;9.760;2022-09-01T03:58:06;11.40;99.90
56428;DHT22;42331;53.578;9.760;2022-09-01T04:00:41;11.40;99.90
56428;DHT22;42331;53.578;9.760;2022-09-01T04:03:13;11.30;99.90
56428;DHT22;42331;53.578;9.760;2022-09-01T04:05:47;11.30;99.90
56428;DHT22;42331;53.578;9.760;2022-09-01T04:08:19;11.30;99.90
56428;DHT22;42331;53.578;9.760;2022-09-01T04:10:52;11.30;99.90
56428;DHT22;42331;53.578;9.760;2022-09-01T04:13:36;11.30;99.90
56428;DHT22;42331;53.578;9.760;2022-09-01T04:16:17;11.30;99.90
56428;DHT22;42331;53.578;9.760;2022-09-01T04:19:08;11.30;99.90
56428;DHT22;42331;53.578;9.760;2022-09-01T04:21:51;11.20;99.90
56428;DHT22;42331;53.578;9.760;2022-09-01T04:24:24;11.20;99.90
56428;DHT22;42331;53.578;9.760;2022-09-01T04:26:59;11.20;99.90
56428;DHT22;42331;53.578;9.760;2022-09-01T04:29:31;11.20;99.90
56428;DHT22;42331;53.578;9.760;2022-09-01T04:32:06;11.10;99.90
56428;DHT22;42331;53.578;9.760;2022-09-01T04:34:37;11.10;99.90
56428;DHT22;42331;53.578;9.760;2022-09-01T04:37:13;11.00;99.90
56428;DHT22;42331;53.578;9.760;2022-09-01T04:39:52;11.00;99.90
56428;DHT22;42331;53.578;9.760;2022-09-01T04:42:26;11.00;99.90
56428;DHT22;42331;53.578;9.760;2022-09-01T04:44:59;11.00;99.90
56428;DHT22;42331;53.578;9.760;2022-09-01T04:47:31;11.00;99.90
56428;DHT22;42331;53.578;9.760;2022-09-01T04:50:04;10.90;99.90
56428;DHT22;42331;53.578;9.760;2022-09-01T04:52:44;11.00;99.90
56428;DHT22;42331;53.578;9.760;2022-09-01T04:55:15;10.90;99.90
56428;DHT22;42331;53.578;9.760;2022-09-01T04:57:49;10.90;99.90
56428;DHT22;42331;53.578;9.760;2022-09-01T05:00:21;11.00;99.90
56428;DHT22;42331;53.578;9.760;2022-09-01T05:02:54;11.00;99.90
56428;DHT22;42331;53.578;9.760;2022-09-01T05:05:40;11.10;99.90
56428;DHT22;42331;53.578;9.760;2022-09-01T05:08:17;11.10;99.90
56428;DHT22;42331;53.578;9.760;2022-09-01T05:10:51;11.10;99.90
56428;DHT22;42331;53.578;9.760;2022-09-01T05:13:24;11.10;99.90
56428;DHT22;42331;53.578;9.760;2022-09-01T05:16:06;11.20;99.90
56428;DHT22;42331;53.578;9.760;2022-09-01T05:18:43;11.20;99.90
56428;DHT22;42331;53.578;9.760;2022-09-01T05:21:19;11.30;99.90
56428;DHT22;42331;53.578;9.760;2022-09-01T05:23:54;11.40;99.90
56428;DHT22;42331;53.578;9.760;2022-09-01T05:26:30;11.40;99.90
56428;DHT22;42331;53.578;9.760;2022-09-01T05:29:04;11.50;99.90
56428;DHT22;42331;53.578;9.760;2022-09-01T05:31:41;11.50;99.90
56428;DHT22;42331;53.578;9.760;2022-09-01T05:34:13;11.60;99.90
56428;DHT22;42331;53.578;9.760;2022-09-01T05:36:45;11.70;99.90
56428;DHT22;42331;53.578;9.760;2022-09-01T05:39:19;11.70;99.90
56428;DHT22;42331;53.578;9.760;2022-09-01T05:41:51;11.80;99.90
56428;DHT22;42331;53.578;9.760;2022-09-01T05:44:23;11.90;99.90
56428;DHT22;42331;53.578;9.760;2022-09-01T05:46:57;11.90;99.90
56428;DHT22;42331;53.578;9.760;2022-09-01T05:49:29;12.00;99.90
56428;DHT22;42331;53.578;9.760;2022-09-01T05:52:02;12.10;99.90
56428;DHT22;42331;53.578;9.760;2022-09-01T05:54:33;12.20;99.90
56428;DHT22;42331;53.578;9.760;2022-09-01T05:57:05;12.20;99.90
56428;DHT22;42331;53.578;9.760;2022-09-01T05:59:36;12.30;99.90
56428;DHT22;42331;53.578;9.760;2022-09-01T06:02:10;12.40;99.90
56428;DHT22;42331;53.578;9.760;2022-09-01T06:04:41;12.40;99.90
56428;DHT22;42331;53.578;9.760;2022-09-01T06:07:16;12.50;99.90
56428;DHT22;42331;53.578;9.760;2022-09-01T06:09:48;12.60;99.90
56428;DHT22;42331;53.578;9.760;2022-09-01T06:12:19;12.80;99.90
56428;DHT22;42331;53.578;9.760;2022-09-01T06:14:53;12.80;99.90
56428;DHT22;42331;53.578;9.760;2022-09-01T06:17:26;13.00;99.90
56428;DHT22;42331;53.578;9.760;2022-09-01T06:19:59;13.10;99.90
56428;DHT22;42331;53.578;9.760;2022-09-01T06:22:30;13.20;99.90
56428;DHT22;42331;53.578;9.760;2022-09-01T06:25:01;13.30;99.90
56428;DHT22;42331;53.578;9.760;2022-09-01T06:27:36;13.40;99.90
56428;DHT22;42331;53.578;9.760;2022-09-01T06:30:15;13.50;99.90
56428;DHT22;42331;53.578;9.760;2022-09-01T06:32:54;13.60;99.90
56428;DHT22;42331;53.578;9.760;2022-09-01T06:35:26;13.70;99.90
56428;DHT22;42331;53.578;9.760;2022-09-01T06:37:59;13.80;99.90
56428;DHT22;42331;53.578;9.760;2022-09-01T06:40:31;13.90;99.90
56428;DHT22;42331;53.578;9.760;2022-09-01T06:43:06;14.00;99.90
56428;DHT22;42331;53.578;9.760;2022-09-01T06:48:38;14.30;99.90
56428;DHT22;42331;53.578;9.760;2022-09-01T06:51:37;14.50;99.90
56428;DHT22;42331;53.578;9.760;2022-09-01T06:54:13;14.70;99.90
56428;DHT22;42331;53.578;9.760;2022-09-01T06:59:52;15.00;99.90
56428;DHT22;42331;53.578;9.760;2022-09-01T07:02:23;15.20;99.90
56428;DHT22;42331;53.578;9.760;2022-09-01T07:04:54;15.30;99.90
56428;DHT22;42331;53.578;9.760;2022-09-01T07:07:25;15.50;99.90
56428;DHT22;42331;53.578;9.760;2022-09-01T07:09:59;15.50;99.90
56428;DHT22;42331;53.578;9.760;2022-09-01T07:12:30;15.60;99.90
56428;DHT22;42331;53.578;9.760;2022-09-01T07:15:01;15.80;99.90
56428;DHT22;42331;53.578;9.760;2022-09-01T07:17:33;15.90;99.90
56428;DHT22;42331;53.578;9.760;2022-09-01T07:20:04;16.00;99.90
56428;DHT22;42331;53.578;9.760;2022-09-01T07:22:35;16.20;99.90
56428;DHT22;42331;53.578;9.760;2022-09-01T07:25:08;16.40;99.90
56428;DHT22;42331;53.578;9.760;2022-09-01T07:27:42;16.60;99.90
56428;DHT22;42331;53.578;9.760;2022-09-01T07:30:21;16.80;99.90
56428;DHT22;42331;53.578;9.760;2022-09-01T07:32:52;17.00;99.90
56428;DHT22;42331;53.578;9.760;2022-09-01T07:35:23;17.20;99.90
56428;DHT22;42331;53.578;9.760;2022-09-01T07:37:54;17.30;99.90
56428;DHT22;42331;53.578;9.760;2022-09-01T07:40:25;17.50;99.90
56428;DHT22;42331;53.578;9.760;2022-09-01T07:42:58;17.60;99.90
56428;DHT22;42331;53.578;9.760;2022-09-01T07:45:30;17.70;99.90
56428;DHT22;42331;53.578;9.760;2022-09-01T07:48:01;17.80;99.90
56428;DHT22;42331;53.578;9.760;2022-09-01T07:50:40;17.80;99.90
56428;DHT22;42331;53.578;9.760;2022-09-01T07:53:14;17.80;99.90
56428;DHT22;42331;53.578;9.760;2022-09-01T07:55:49;18.00;99.90
56428;DHT22;42331;53.578;9.760;2022-09-01T07:58:23;18.00;99.90
56428;DHT22;42331;53.578;9.760;2022-09-01T08:00:55;18.20;99.90
56428;DHT22;42331;53.578;9.760;2022-09-01T08:03:32;18.30;99.90
56428;DHT22;42331;53.578;9.760;2022-09-01T08:06:05;18.40;99.90
56428;DHT22;42331;53.578;9.760;2022-09-01T08:08:37;18.60;99.90
56428;DHT22;42331;53.578;9.760;2022-09-01T08:11:09;18.50;99.90
56428;DHT22;42331;53.578;9.760;2022-09-01T08:13:45;18.50;99.90
56428;DHT22;42331;53.578;9.760;2022-09-01T08:16:16;18.40;99.90
56428;DHT22;42331;53.578;9.760;2022-09-01T08:18:47;18.60;99.90
56428;DHT22;42331;53.578;9.760;2022-09-01T08:21:21;18.60;99.90
56428;DHT22;42331;53.578;9.760;2022-09-01T08:23:54;18.70;99.90
56428;DHT22;42331;53.578;9.760;2022-09-01T08:26:25;18.80;99.90
56428;DHT22;42331;53.578;9.760;2022-09-01T08:28:56;18.80;99.90
56428;DHT22;42331;53.578;9.760;2022-09-01T08:31:26;18.90;99.90
56428;DHT22;42331;53.578;9.760;2022-09-01T08:33:57;19.00;99.90
56428;DHT22;42331;53.578;9.760;2022-09-01T08:36:29;19.00;99.90
56428;DHT22;42331;53.578;9.760;2022-09-01T08:39:00;19.10;99.90
56428;DHT22;42331;53.578;9.760;2022-09-01T08:41:44;19.20;99.90
56428;DHT22;42331;53.578;9.760;2022-09-01T08:47:07;19.30;99.90
56428;DHT22;42331;53.578;9.760;2022-09-01T08:49:39;19.40;99.90
56428;DHT22;42331;53.578;9.760;2022-09-01T08:52:34;19.50;99.90
56428;DHT22;42331;53.578;9.760;2022-09-01T08:55:25;19.50;99.90
56428;DHT22;42331;53.578;9.760;2022-09-01T08:57:59;19.40;99.90
56428;DHT22;42331;53.578;9.760;2022-09-01T09:00:38;19.50;99.90
56428;DHT22;42331;53.578;9.760;2022-09-01T09:06:22;19.80;99.90
56428;DHT22;42331;53.578;9.760;2022-09-01T09:09:00;19.90;99.90
56428;DHT22;42331;53.578;9.760;2022-09-01T09:14:32;20.10;99.90
56428;DHT22;42331;53.578;9.760;2022-09-01T09:17:07;20.20;99.90
56428;DHT22;42331;53.578;9.760;2022-09-01T09:19:39;20.20;99.90
56428;DHT22;42331;53.578;9.760;2022-09-01T09:22:16;20.20;99.90
56428;DHT22;42331;53.578;9.760;2022-09-01T09:27:39;20.50;99.90
56428;DHT22;42331;53.578;9.760;2022-09-01T09:30:22;20.50;99.90
56428;DHT22;42331;53.578;9.760;2022-09-01T09:35:36;20.80;99.90
56428;DHT22;42331;53.578;9.760;2022-09-01T09:43:41;20.90;99.90
56428;DHT22;42331;53.578;9.760;2022-09-01T09:49:25;21.20;99.90
56428;DHT22;42331;53.578;9.760;2022-09-01T09:52:15;21.20;99.90
56428;DHT22;42331;53.578;9.760;2022-09-01T09:55:03;21.20;99.90
56428;DHT22;42331;53.578;9.760;2022-09-01T09:57:38;21.30;99.90
56428;DHT22;42331;53.578;9.760;2022-09-01T10:00:56;21.60;99.90
56428;DHT22;42331;53.578;9.760;2022-09-01T10:03:37;21.50;99.90
56428;DHT22;42331;53.578;9.760;2022-09-01T10:06:15;21.60;99.90
56428;DHT22;42331;53.578;9.760;2022-09-01T10:09:03;21.40;99.90
56428;DHT22;42331;53.578;9.760;2022-09-01T10:11:43;21.00;99.90
56428;DHT22;42331;53.578;9.760;2022-09-01T10:14:28;21.50;99.90
56428;DHT22;42331;53.578;9.760;2022-09-01T10:17:13;22.50;99.90
56428;DHT22;42331;53.578;9.760;2022-09-01T10:19:53;23.90;99.90
56428;DHT22;42331;53.578;9.760;2022-09-01T10:22:25;25.00;99.90
56428;DHT22;42331;53.578;9.760;2022-09-01T10:24:55;25.50;99.90
56428;DHT22;42331;53.578;9.760;2022-09-01T10:27:30;26.30;99.90
56428;DHT22;42331;53.578;9.760;2022-09-01T10:30:12;26.70;98.20
56428;DHT22;42331;53.578;9.760;2022-09-01T10:32:46;26.60;96.40
56428;DHT22;42331;53.578;9.760;2022-09-01T10:37:56;24.90;96.50
56428;DHT22;42331;53.578;9.760;2022-09-01T10:43:22;23.50;98.20
56428;DHT22;42331;53.578;9.760;2022-09-01T10:45:51;22.90;99.50
56428;DHT22;42331;53.578;9.760;2022-09-01T10:48:25;22.00;99.90
56428;DHT22;42331;53.578;9.760;2022-09-01T10:56:42;22.70;99.90
56428;DHT22;42331;53.578;9.760;2022-09-01T11:07:04;26.70;94.50
56428;DHT22;42331;53.578;9.760;2022-09-01T11:09:41;27.20;92.30
56428;DHT22;42331;53.578;9.760;2022-09-01T11:17:38;27.30;89.60
56428;DHT22;42331;53.578;9.760;2022-09-01T11:20:32;25.90;91.40
56428;DHT22;42331;53.578;9.760;2022-09-01T11:23:05;24.90;92.90
56428;DHT22;42331;53.578;9.760;2022-09-01T11:25:45;24.40;92.90
56428;DHT22;42331;53.578;9.760;2022-09-01T11:42:18;22.70;96.00
56428;DHT22;42331;53.578;9.760;2022-09-01T11:45:20;22.30;95.40
56428;DHT22;42331;53.578;9.760;2022-09-01T11:47:59;21.90;97.90
56428;DHT22;42331;53.578;9.760;2022-09-01T11:50:34;21.90;97.20
56428;DHT22;42331;53.578;9.760;2022-09-01T11:53:19;21.80;98.20
56428;DHT22;42331;53.578;9.760;2022-09-01T11:55:53;21.90;98.10
56428;DHT22;42331;53.578;9.760;2022-09-01T12:03:44;21.30;98.90
56428;DHT22;42331;53.578;9.760;2022-09-01T12:06:27;21.10;99.90
56428;DHT22;42331;53.578;9.760;2022-09-01T12:09:04;21.00;99.50
56428;DHT22;42331;53.578;9.760;2022-09-01T12:11:35;21.00;99.20
56428;DHT22;42331;53.578;9.760;2022-09-01T12:14:08;20.80;99.50
56428;DHT22;42331;53.578;9.760;2022-09-01T12:16:40;20.80;98.60
56428;DHT22;42331;53.578;9.760;2022-09-01T12:19:23;20.90;99.30
56428;DHT22;42331;53.578;9.760;2022-09-01T12:22:12;21.10;99.90
56428;DHT22;42331;53.578;9.760;2022-09-01T12:24:46;21.50;99.80
56428;DHT22;42331;53.578;9.760;2022-09-01T12:27:19;21.70;99.10
56428;DHT22;42331;53.578;9.760;2022-09-01T12:29:50;21.80;99.90
56428;DHT22;42331;53.578;9.760;2022-09-01T12:32:21;22.00;99.00
56428;DHT22;42331;53.578;9.760;2022-09-01T12:35:12;21.90;99.40
56428;DHT22;42331;53.578;9.760;2022-09-01T12:37:44;21.60;99.90
56428;DHT22;42331;53.578;9.760;2022-09-01T12:40:32;21.40;99.90
56428;DHT22;42331;53.578;9.760;2022-09-01T12:43:04;21.30;99.90
56428;DHT22;42331;53.578;9.760;2022-09-01T12:45:41;21.30;99.90
56428;DHT22;42331;53.578;9.760;2022-09-01T12:48:32;21.20;99.90
56428;DHT22;42331;53.578;9.760;2022-09-01T12:53:59;20.80;99.90
56428;DHT22;42331;53.578;9.760;2022-09-01T12:56:32;20.70;99.90
56428;DHT22;42331;53.578;9.760;2022-09-01T12:59:19;20.80;99.90
56428;DHT22;42331;53.578;9.760;2022-09-01T13:01:51;20.80;99.90
56428;DHT22;42331;53.578;9.760;2022-09-01T13:07:05;21.20;99.90
56428;DHT22;42331;53.578;9.760;2022-09-01T13:09:41;21.30;99.90
56428;DHT22;42331;53.578;9.760;2022-09-01T13:12:21;21.50;99.90
56428;DHT22;42331;53.578;9.760;2022-09-01T13:14:51;21.70;99.90
56428;DHT22;42331;53.578;9.760;2022-09-01T13:17:22;21.90;99.90
56428;DHT22;42331;53.578;9.760;2022-09-01T13:19:53;22.10;99.90
56428;DHT22;42331;53.578;9.760;2022-09-01T13:22:24;22.00;99.90
56428;DHT22;42331;53.578;9.760;2022-09-01T13:25:00;21.90;99.90
56428;DHT22;42331;53.578;9.760;2022-09-01T13:27:31;21.80;99.90
56428;DHT22;42331;53.578;9.760;2022-09-01T13:30:02;21.60;99.90
56428;DHT22;42331;53.578;9.760;2022-09-01T13:32:39;21.70;99.90
56428;DHT22;42331;53.578;9.760;2022-09-01T13:35:12;21.70;99.90
56428;DHT22;42331;53.578;9.760;2022-09-01T13:37:47;21.70;99.90
56428;DHT22;42331;53.578;9.760;2022-09-01T13:40:20;21.50;99.90
56428;DHT22;42331;53.578;9.760;2022-09-01T13:42:52;21.40;99.90
56428;DHT22;42331;53.578;9.760;2022-09-01T13:45:23;21.30;99.90
56428;DHT22;42331;53.578;9.760;2022-09-01T13:47:54;21.20;99.90
56428;DHT22;42331;53.578;9.760;2022-09-01T13:50:25;21.10;99.90
56428;DHT22;42331;53.578;9.760;2022-09-01T13:52:56;21.00;99.90
56428;DHT22;42331;53.578;9.760;2022-09-01T13:55:29;21.00;99.90
56428;DHT22;42331;53.578;9.760;2022-09-01T13:58:00;21.00;99.90
56428;DHT22;42331;53.578;9.760;2022-09-01T14:00:37;21.10;99.90
56428;DHT22;42331;53.578;9.760;2022-09-01T14:03:14;21.30;99.90
56428;DHT22;42331;53.578;9.760;2022-09-01T14:05:47;21.50;99.90
56428;DHT22;42331;53.578;9.760;2022-09-01T14:08:19;21.80;99.90
56428;DHT22;42331;53.578;9.760;2022-09-01T14:10:52;21.60;99.90
56428;DHT22;42331;53.578;9.760;2022-09-01T14:13:26;21.40;99.90
56428;DHT22;42331;53.578;9.760;2022-09-01T14:15:56;21.20;99.90
56428;DHT22;42331;53.578;9.760;2022-09-01T14:18:28;21.10;99.90
56428;DHT22;42331;53.578;9.760;2022-09-01T14:21:10;20.90;99.90
56428;DHT22;42331;53.578;9.760;2022-09-01T14:23:43;20.90;99.90
56428;DHT22;42331;53.578;9.760;2022-09-01T14:26:18;20.80;99.90
56428;DHT22;42331;53.578;9.760;2022-09-01T14:28:51;20.70;99.90
56428;DHT22;42331;53.578;9.760;2022-09-01T14:31:21;20.60;99.90
56428;DHT22;42331;53.578;9.760;2022-09-01T14:33:52;20.60;99.90
56428;DHT22;42331;53.578;9.760;2022-09-01T14:36:25;20.60;99.90
56428;DHT22;42331;53.578;9.760;2022-09-01T14:38:56;20.50;99.90
56428;DHT22;42331;53.578;9.760;2022-09-01T14:41:27;20.40;99.90
56428;DHT22;42331;53.578;9.760;2022-09-01T14:43:57;20.50;99.90
56428;DHT22;42331;53.578;9.760;2022-09-01T14:46:31;20.60;99.90
56428;DHT22;42331;53.578;9.760;2022-09-01T14:49:03;20.60;99.90
56428;DHT22;42331;53.578;9.760;2022-09-01T14:51:34;20.80;99.90
56428;DHT22;42331;53.578;9.760;2022-09-01T14:54:07;20.90;99.90
56428;DHT22;42331;53.578;9.760;2022-09-01T14:56:40;21.00;99.90
56428;DHT22;42331;53.578;9.760;2022-09-01T14:59:11;21.10;99.90
56428;DHT22;42331;53.578;9.760;2022-09-01T15:01:47;21.10;99.90
56428;DHT22;42331;53.578;9.760;2022-09-01T15:04:18;21.20;99.90
56428;DHT22;42331;53.578;9.760;2022-09-01T15:06:49;21.20;99.90
56428;DHT22;42331;53.578;9.760;2022-09-01T15:09:20;21.10;99.90
56428;DHT22;42331;53.578;9.760;2022-09-01T15:11:51;21.20;99.90
56428;DHT22;42331;53.578;9.760;2022-09-01T15:14:25;21.20;99.90
56428;DHT22;42331;53.578;9.760;2022-09-01T15:16:56;21.20;99.90
56428;DHT22;42331;53.578;9.760;2022-09-01T15:19:27;21.20;99.90
56428;DHT22;42331;53.578;9.760;2022-09-01T16:51:51;19.90;99.90
56428;DHT22;42331;53.578;9.760;2022-09-01T16:57:00;19.80;99.90
56428;DHT22;42331;53.578;9.760;2022-09-01T16:59:59;19.80;99.90
56428;DHT22;42331;53.578;9.760;2022-09-01T17:08:25;19.70;99.90
56428;DHT22;42331;53.578;9.760;2022-09-01T17:11:12;19.60;99.90
56428;DHT22;42331;53.578;9.760;2022-09-01T17:13:49;19.60;99.90
56428;DHT22;42331;53.578;9.760;2022-09-01T17:16:37;19.60;99.90
56428;DHT22;42331;53.578;9.760;2022-09-01T17:19:19;19.50;99.90
56428;DHT22;42331;53.578;9.760;2022-09-01T17:21:59;19.50;99.90
56428;DHT22;42331;53.578;9.760;2022-09-01T17:24:37;19.50;99.90
56428;DHT22;42331;53.578;9.760;2022-09-01T17:30:06;19.30;99.90
56428;DHT22;42331;53.578;9.760;2022-09-01T17:33:04;19.30;99.90
56428;DHT22;42331;53.578;9.760;2022-09-01T17:36:02;19.20;99.90
56428;DHT22;42331;53.578;9.760;2022-09-01T17:39:02;19.10;99.90
56428;DHT22;42331;53.578;9.760;2022-09-01T17:58:36;18.70;99.90
56428;DHT22;42331;53.578;9.760;2022-09-01T18:01:59;18.60;99.90
